createdAt,value
2018-09-13T00:01:27.054Z,73.20
2018-09-13T00:03:55.483Z,73.40
2018-09-13T00:06:24.042Z,73.40
2018-09-13T00:08:52.476Z,73.70
2018-09-13T00:11:20.884Z,73.60
2018-09-13T00:13:49.360Z,74.60
2018-09-13T00:16:18.116Z,74.20
2018-09-13T00:18:46.536Z,75.00
2018-09-13T00:21:15.220Z,74.40
2018-09-13T00:23:43.659Z,74.20
2018-09-13T00:26:12.054Z,74.40
2018-09-13T00:28:40.638Z,74.50
2018-09-13T00:31:09.024Z,74.50
2018-09-13T00:33:37.445Z,74.30
2018-09-13T00:36:05.905Z,73.80
2018-09-13T00:38:34.251Z,73.90
2018-09-13T00:41:02.634Z,73.80
2018-09-13T00:43:30.988Z,73.30
2018-09-13T00:45:59.327Z,72.80
2018-09-13T00:48:27.667Z,73.30
2018-09-13T00:50:56.090Z,73.20
2018-09-13T00:53:24.479Z,73.50
2018-09-13T00:55:52.964Z,73.40
2018-09-13T00:58:21.327Z,73.90
2018-09-13T01:00:49.783Z,73.50
2018-09-13T01:03:18.178Z,72.70
2018-09-13T01:05:46.755Z,73.50
2018-09-13T01:08:15.166Z,73.10
2018-09-13T01:10:43.564Z,73.20
2018-09-13T01:13:11.982Z,72.50
2018-09-13T01:15:40.342Z,72.70
2018-09-13T01:18:08.744Z,72.40
2018-09-13T01:20:37.118Z,71.80
2018-09-13T01:23:05.564Z,71.90
2018-09-13T01:25:33.943Z,72.20
2018-09-13T01:28:02.343Z,72.20
2018-09-13T01:30:30.844Z,72.00
2018-09-13T01:32:59.289Z,72.30
2018-09-13T01:35:27.629Z,72.10
2018-09-13T01:37:56.079Z,72.10
2018-09-13T01:40:24.463Z,72.80
2018-09-13T01:42:52.826Z,72.50
2018-09-13T01:45:21.210Z,72.70
2018-09-13T01:47:49.580Z,73.40
2018-09-13T01:50:17.928Z,72.80
2018-09-13T01:52:46.432Z,72.10
2018-09-13T01:55:14.793Z,72.70
2018-09-13T01:57:43.218Z,72.80
2018-09-13T02:00:11.607Z,73.20
2018-09-13T02:02:40.088Z,72.50
2018-09-13T02:05:08.666Z,72.70
2018-09-13T02:07:37.060Z,72.80
2018-09-13T02:10:05.668Z,72.60
2018-09-13T02:12:34.068Z,72.80
2018-09-13T02:15:02.467Z,72.90
2018-09-13T02:17:30.876Z,73.30
2018-09-13T02:19:59.292Z,73.80
2018-09-13T02:22:31.325Z,73.50
2018-09-13T02:24:59.706Z,73.40
2018-09-13T02:27:28.121Z,73.40
2018-09-13T02:29:56.533Z,73.90
2018-09-13T02:32:25.010Z,73.90
2018-09-13T02:34:53.419Z,73.70
2018-09-13T02:37:21.809Z,73.30
2018-09-13T02:39:50.189Z,73.70
2018-09-13T02:42:18.632Z,74.00
2018-09-13T02:44:47.122Z,73.80
2018-09-13T02:47:15.514Z,74.20
2018-09-13T02:49:43.926Z,74.70
2018-09-13T02:52:12.451Z,74.70
2018-09-13T02:54:40.911Z,75.10
2018-09-13T02:57:10.089Z,75.70
2018-09-13T02:59:38.679Z,75.70
2018-09-13T03:02:07.248Z,76.10
2018-09-13T03:04:35.808Z,77.00
2018-09-13T03:07:04.248Z,77.10
2018-09-13T03:09:32.737Z,77.10
2018-09-13T03:12:01.152Z,77.70
2018-09-13T03:14:29.613Z,78.10
2018-09-13T03:16:57.989Z,78.30
2018-09-13T03:19:26.460Z,78.60
2018-09-13T03:21:54.871Z,79.00
2018-09-13T03:24:23.280Z,79.80
2018-09-13T03:26:51.828Z,80.80
2018-09-13T03:29:20.296Z,81.20
2018-09-13T03:31:48.675Z,81.60
2018-09-13T03:34:17.120Z,82.10
2018-09-13T03:36:45.568Z,82.30
2018-09-13T03:39:14.023Z,82.60
2018-09-13T03:41:42.441Z,83.00
2018-09-13T03:44:10.929Z,83.10
2018-09-13T03:46:39.383Z,83.30
2018-09-13T03:49:07.817Z,83.50
2018-09-13T03:51:36.931Z,84.40
2018-09-13T03:54:05.993Z,84.60
2018-09-13T03:56:34.371Z,84.40
2018-09-13T03:59:02.775Z,84.50
2018-09-13T04:01:31.199Z,85.30
2018-09-13T04:03:59.607Z,85.80
2018-09-13T04:06:28.012Z,86.20
2018-09-13T04:08:56.383Z,87.00
2018-09-13T04:11:24.767Z,86.50
2018-09-13T04:13:53.192Z,86.70
2018-09-13T04:16:21.627Z,86.70
2018-09-13T04:18:50.216Z,86.70
2018-09-13T04:21:18.619Z,86.70
2018-09-13T04:23:47.130Z,86.80
2018-09-13T04:26:15.495Z,87.40
2018-09-13T04:28:44.473Z,86.90
2018-09-13T04:31:12.875Z,86.90
2018-09-13T04:33:41.367Z,86.30
2018-09-13T04:36:09.985Z,85.50
2018-09-13T04:38:38.295Z,84.90
2018-09-13T04:41:07.557Z,83.60
2018-09-13T04:43:35.978Z,83.60
2018-09-13T04:46:04.420Z,83.50
2018-09-13T04:48:33.218Z,82.70
2018-09-13T04:51:02.068Z,82.40
2018-09-13T04:53:30.592Z,82.50
2018-09-13T04:55:58.965Z,82.40
2018-09-13T04:58:27.453Z,82.20
2018-09-13T05:00:56.019Z,81.50
2018-09-13T05:03:24.546Z,81.10
2018-09-13T05:05:53.003Z,80.80
2018-09-13T05:08:21.388Z,81.60
2018-09-13T05:10:49.838Z,82.20
2018-09-13T05:13:18.271Z,81.70
2018-09-13T05:15:46.733Z,82.50
2018-09-13T05:18:15.093Z,82.80
2018-09-13T05:20:43.497Z,83.10
2018-09-13T05:23:11.917Z,83.40
2018-09-13T05:25:40.500Z,83.30
2018-09-13T05:28:08.977Z,84.10
2018-09-13T05:30:37.456Z,82.40
2018-09-13T05:33:06.046Z,81.90
2018-09-13T05:35:34.516Z,81.00
2018-09-13T05:38:03.308Z,81.60
2018-09-13T05:40:31.748Z,81.30
2018-09-13T05:43:00.153Z,82.10
2018-09-13T05:45:29.213Z,82.30
2018-09-13T05:47:57.707Z,81.60
2018-09-13T05:50:26.259Z,82.20
2018-09-13T05:52:55.380Z,82.30
2018-09-13T05:55:23.897Z,82.20
2018-09-13T05:57:52.414Z,82.70
2018-09-13T06:00:20.836Z,82.40
2018-09-13T06:02:49.329Z,83.10
2018-09-13T06:05:24.470Z,83.60
2018-09-13T06:07:53.024Z,83.40
2018-09-13T06:10:21.576Z,84.60
2018-09-13T06:12:50.058Z,83.70
2018-09-13T06:15:18.600Z,81.70
2018-09-13T06:17:47.119Z,82.50
2018-09-13T06:20:15.558Z,83.10
2018-09-13T06:22:43.994Z,82.50
2018-09-13T06:25:12.762Z,82.00
2018-09-13T06:27:41.188Z,82.30
2018-09-13T06:30:09.755Z,82.80
2018-09-13T06:32:38.362Z,82.80
2018-09-13T06:35:06.887Z,81.20
2018-09-13T06:37:35.323Z,81.40
2018-09-13T06:40:03.893Z,81.50
2018-09-13T06:42:32.547Z,81.40
2018-09-13T06:45:00.994Z,80.70
2018-09-13T06:47:29.451Z,80.80
2018-09-13T06:49:57.883Z,81.50
2018-09-13T06:52:26.367Z,81.40
2018-09-13T06:54:54.841Z,80.50
2018-09-13T06:57:23.266Z,80.00
2018-09-13T06:59:51.859Z,79.60
2018-09-13T07:02:20.252Z,80.00
2018-09-13T07:04:48.712Z,79.40
2018-09-13T07:07:17.574Z,79.50
2018-09-13T07:09:46.048Z,79.10
2018-09-13T07:12:14.457Z,79.40
2018-09-13T07:14:42.879Z,79.60
2018-09-13T07:17:11.354Z,80.50
2018-09-13T07:19:39.943Z,80.70
2018-09-13T07:22:08.357Z,81.40
2018-09-13T07:24:37.366Z,82.20
2018-09-13T07:27:06.637Z,82.60
2018-09-13T07:29:35.346Z,82.10
2018-09-13T07:32:03.854Z,82.50
2018-09-13T07:34:32.288Z,82.60
2018-09-13T07:37:00.678Z,82.50
2018-09-13T07:39:29.148Z,82.00
2018-09-13T07:41:57.593Z,81.90
2018-09-13T07:44:26.027Z,81.60
2018-09-13T07:46:54.525Z,82.40
2018-09-13T07:49:22.983Z,82.10
2018-09-13T07:51:51.426Z,82.10
2018-09-13T07:54:21.009Z,81.80
2018-09-13T07:56:49.390Z,81.90
2018-09-13T07:59:17.958Z,81.50
2018-09-13T08:01:46.448Z,80.40
2018-09-13T08:04:14.886Z,81.60
2018-09-13T08:06:43.314Z,81.50
2018-09-13T08:09:13.306Z,81.50
2018-09-13T08:11:42.448Z,82.90
2018-09-13T08:14:11.189Z,83.00
2018-09-13T08:16:39.669Z,82.90
2018-09-13T08:19:09.025Z,83.40
2018-09-13T08:21:37.602Z,82.60
2018-09-13T08:24:06.123Z,82.20
2018-09-13T08:26:34.538Z,82.90
2018-09-13T08:29:02.934Z,83.10
2018-09-13T08:31:31.389Z,83.60
2018-09-13T08:33:59.777Z,82.80
2018-09-13T08:36:28.471Z,82.90
2018-09-13T08:38:56.956Z,82.40
2018-09-13T08:41:25.521Z,82.50
2018-09-13T08:43:53.986Z,82.20
2018-09-13T08:46:22.448Z,82.00
2018-09-13T08:48:52.103Z,80.60
2018-09-13T08:51:21.477Z,81.00
2018-09-13T08:53:50.063Z,80.30
2018-09-13T08:56:18.487Z,81.40
2018-09-13T08:58:46.932Z,81.20
2018-09-13T09:01:18.760Z,81.10
2018-09-13T09:03:47.304Z,80.30
2018-09-13T09:06:15.720Z,80.30
2018-09-13T09:08:44.287Z,80.20
2018-09-13T09:11:13.097Z,80.20
2018-09-13T09:13:41.511Z,79.90
2018-09-13T09:16:09.916Z,79.30
2018-09-13T09:18:38.424Z,79.50
2018-09-13T09:21:07.089Z,79.00
2018-09-13T09:23:35.512Z,79.00
2018-09-13T09:26:04.288Z,79.50
2018-09-13T09:28:32.722Z,78.80
2018-09-13T09:31:01.295Z,78.60
2018-09-13T09:33:29.799Z,78.60
2018-09-13T09:35:58.202Z,78.50
2018-09-13T09:38:26.669Z,78.40
2018-09-13T09:40:55.124Z,77.90
2018-09-13T09:43:24.479Z,78.20
2018-09-13T09:45:53.147Z,78.60
2018-09-13T09:48:21.638Z,78.40
2018-09-13T09:50:50.293Z,78.20
2018-09-13T09:53:18.740Z,78.10
2018-09-13T09:55:47.303Z,78.10
2018-09-13T09:58:15.834Z,78.10
2018-09-13T10:00:49.596Z,78.20
2018-09-13T10:03:19.118Z,78.00
2018-09-13T10:05:47.616Z,77.60
2018-09-13T10:08:16.312Z,77.00
2018-09-13T10:10:44.731Z,77.40
2018-09-13T10:13:13.170Z,77.60
2018-09-13T10:15:46.998Z,77.60
2018-09-13T10:18:20.786Z,77.60
2018-09-13T10:20:54.597Z,77.70
2018-09-13T10:23:28.504Z,77.40
2018-09-13T10:26:02.201Z,77.40
2018-09-13T10:28:35.954Z,77.60
2018-09-13T10:31:09.994Z,77.90
2018-09-13T10:33:44.020Z,78.00
2018-09-13T10:36:18.069Z,77.70
2018-09-13T10:38:51.989Z,77.30
2018-09-13T10:41:25.878Z,77.50
2018-09-13T10:43:59.707Z,77.40
2018-09-13T10:46:30.146Z,77.20
2018-09-13T10:49:03.957Z,77.20
2018-09-13T10:51:37.759Z,77.30
2018-09-13T10:54:12.121Z,77.10
2018-09-13T10:56:41.137Z,76.90
2018-09-13T10:59:09.734Z,76.40
2018-09-13T11:01:38.554Z,75.80
2018-09-13T11:04:07.174Z,75.70
2018-09-13T11:06:35.674Z,75.30
2018-09-13T11:09:05.271Z,74.60
2018-09-13T11:11:33.758Z,74.30
2018-09-13T11:14:08.488Z,74.20
2018-09-13T11:16:37.099Z,74.20
2018-09-13T11:19:05.685Z,73.90
2018-09-13T11:21:34.177Z,73.50
2018-09-13T11:24:02.665Z,73.50
2018-09-13T11:26:31.208Z,72.70
2018-09-13T11:28:59.634Z,71.80
2018-09-13T11:31:28.136Z,71.20
2018-09-13T11:33:56.678Z,71.10
2018-09-13T11:36:25.100Z,71.30
2018-09-13T11:38:53.555Z,71.80
2018-09-13T11:41:22.055Z,71.60
2018-09-13T11:43:50.503Z,71.80
2018-09-13T11:46:18.931Z,72.00
2018-09-13T11:48:47.981Z,71.50
2018-09-13T11:51:17.009Z,71.50
2018-09-13T11:53:45.480Z,71.60
2018-09-13T11:56:13.949Z,71.80
2018-09-13T11:58:42.371Z,72.20
2018-09-13T12:01:10.845Z,72.40
2018-09-13T12:03:39.418Z,72.40
2018-09-13T12:06:07.818Z,72.60
2018-09-13T12:08:36.348Z,72.90
2018-09-13T12:11:04.905Z,73.30
2018-09-13T12:13:33.388Z,73.10
2018-09-13T12:16:02.784Z,73.20
2018-09-13T12:18:31.417Z,72.90
2018-09-13T12:20:59.749Z,72.50
2018-09-13T12:23:28.188Z,72.80
2018-09-13T12:25:56.628Z,72.80
2018-09-13T12:28:25.130Z,72.40
2018-09-13T12:30:53.618Z,72.30
2018-09-13T12:33:22.054Z,72.50
2018-09-13T12:35:50.473Z,72.80
2018-09-13T12:38:18.931Z,72.60
2018-09-13T12:40:47.415Z,72.50
2018-09-13T12:43:15.870Z,71.80
2018-09-13T12:45:44.294Z,71.70
2018-09-13T12:48:12.676Z,71.70
2018-09-13T12:50:41.211Z,71.60
2018-09-13T12:53:09.651Z,71.80
2018-09-13T12:55:43.585Z,71.70
2018-09-13T12:58:12.113Z,71.70
2018-09-13T13:00:41.034Z,71.50
2018-09-13T13:03:09.486Z,71.20
2018-09-13T13:05:37.959Z,71.20
2018-09-13T13:08:06.400Z,70.40
2018-09-13T13:10:34.913Z,70.10
2018-09-13T13:13:03.307Z,70.30
2018-09-13T13:15:32.232Z,70.20
2018-09-13T13:18:00.747Z,69.70
2018-09-13T13:20:29.422Z,69.40
2018-09-13T13:22:58.641Z,70.00
2018-09-13T13:25:27.746Z,70.30
2018-09-13T13:27:56.238Z,70.40
2018-09-13T13:30:25.027Z,70.20
2018-09-13T13:32:53.525Z,70.30
2018-09-13T13:35:22.056Z,70.40
2018-09-13T13:37:50.628Z,70.50
2018-09-13T13:40:19.673Z,70.50
2018-09-13T13:42:48.382Z,70.60
2018-09-13T13:45:16.806Z,70.50
2018-09-13T13:47:45.386Z,70.60
2018-09-13T13:50:14.014Z,70.40
2018-09-13T13:52:42.804Z,70.60
2018-09-13T13:55:11.724Z,70.60
2018-09-13T13:57:40.220Z,70.80
2018-09-13T14:00:08.838Z,70.50
2018-09-13T14:02:37.294Z,70.60
2018-09-13T14:05:06.431Z,70.50
2018-09-13T14:07:34.897Z,70.70
2018-09-13T14:10:04.343Z,71.20
2018-09-13T14:12:32.768Z,71.50
2018-09-13T14:15:01.501Z,71.70
2018-09-13T14:17:29.878Z,71.70
2018-09-13T14:19:58.338Z,71.80
2018-09-13T14:22:26.861Z,72.00
2018-09-13T14:24:55.445Z,71.80
2018-09-13T14:27:23.918Z,71.60
2018-09-13T14:29:53.231Z,71.50
2018-09-13T14:32:21.877Z,71.70
2018-09-13T14:34:50.424Z,71.80
2018-09-13T14:37:18.960Z,72.00
2018-09-13T14:39:47.582Z,72.10
2018-09-13T14:42:17.912Z,72.40
2018-09-13T14:44:46.752Z,73.40
2018-09-13T14:47:15.818Z,72.70
2018-09-13T14:49:45.228Z,73.10
2018-09-13T14:52:13.736Z,73.00
2018-09-13T14:54:42.149Z,73.00
2018-09-13T14:57:10.595Z,73.50
2018-09-13T14:59:39.064Z,74.00
2018-09-13T15:02:07.489Z,74.30
2018-09-13T15:04:35.864Z,74.80
2018-09-13T15:07:04.424Z,74.90
2018-09-13T15:09:33.069Z,74.70
2018-09-13T15:12:01.704Z,74.90
2018-09-13T15:14:30.207Z,74.70
2018-09-13T15:16:58.672Z,74.80
2018-09-13T15:19:27.132Z,74.80
2018-09-13T15:21:55.579Z,75.30
2018-09-13T15:24:25.152Z,75.70
2018-09-13T15:26:53.676Z,76.00
2018-09-13T15:29:22.285Z,77.00
2018-09-13T15:31:50.704Z,77.20
2018-09-13T15:34:19.166Z,77.70
2018-09-13T15:36:47.587Z,78.00
2018-09-13T15:39:16.089Z,78.20
2018-09-13T15:41:44.628Z,78.40
2018-09-13T15:44:13.300Z,78.50
2018-09-13T15:46:41.772Z,79.10
2018-09-13T15:49:10.136Z,79.40
2018-09-13T15:51:38.637Z,79.20
2018-09-13T15:54:07.254Z,79.50
2018-09-13T15:56:35.739Z,79.40
2018-09-13T15:59:04.284Z,80.00
2018-09-13T16:01:32.789Z,80.40
2018-09-13T16:04:01.244Z,80.20
2018-09-13T16:06:29.669Z,80.70
2018-09-13T16:08:58.157Z,80.90
2018-09-13T16:11:26.593Z,81.10
2018-09-13T16:13:55.366Z,82.00
2018-09-13T16:16:23.856Z,81.80
2018-09-13T16:18:52.385Z,81.90
2018-09-13T16:21:21.635Z,81.60
2018-09-13T16:23:51.239Z,82.00
2018-09-13T16:26:21.121Z,82.10
2018-09-13T16:28:49.524Z,82.40
2018-09-13T16:31:18.130Z,82.40
2018-09-13T16:33:47.084Z,82.00
2018-09-13T16:36:22.517Z,83.00
2018-09-13T16:38:56.505Z,83.00
2018-09-13T16:41:30.751Z,82.80
2018-09-13T16:44:01.639Z,82.90
2018-09-13T16:46:39.154Z,83.00
2018-09-13T16:49:08.344Z,83.60
2018-09-13T16:51:37.643Z,83.90
2018-09-13T16:54:06.282Z,83.80
2018-09-13T16:56:34.656Z,84.70
2018-09-13T16:59:03.253Z,84.50
2018-09-13T17:01:31.634Z,84.70
2018-09-13T17:04:00.217Z,84.80
2018-09-13T17:06:28.908Z,85.50
2018-09-13T17:08:57.397Z,84.80
2018-09-13T17:11:26.011Z,84.20
2018-09-13T17:13:54.521Z,84.60
2018-09-13T17:16:23.045Z,84.70
2018-09-13T17:18:51.495Z,84.50
2018-09-13T17:21:20.154Z,84.50
2018-09-13T17:23:49.594Z,84.90
2018-09-13T17:26:18.065Z,84.20
2018-09-13T17:28:46.472Z,84.60
2018-09-13T17:31:14.961Z,85.60
2018-09-13T17:33:43.442Z,85.90
2018-09-13T17:36:11.825Z,85.80
2018-09-13T17:38:40.379Z,86.30
2018-09-13T17:41:08.802Z,87.00
2018-09-13T17:43:37.226Z,87.20
2018-09-13T17:46:06.484Z,87.50
2018-09-13T17:48:36.103Z,88.20
2018-09-13T17:51:05.779Z,88.50
2018-09-13T17:53:34.237Z,88.60
2018-09-13T17:56:02.858Z,88.90
2018-09-13T17:58:31.409Z,88.60
2018-09-13T18:00:59.872Z,88.50
2018-09-13T18:03:29.428Z,88.90
2018-09-13T18:05:58.032Z,88.30
2018-09-13T18:08:26.613Z,88.10
2018-09-13T18:10:55.186Z,87.90
2018-09-13T18:13:23.657Z,88.10
2018-09-13T18:15:52.149Z,87.80
2018-09-13T18:18:20.645Z,87.80
2018-09-13T18:20:49.057Z,88.10
2018-09-13T18:23:17.500Z,88.40
2018-09-13T18:25:45.863Z,88.40
2018-09-13T18:28:15.021Z,87.90
2018-09-13T18:30:44.247Z,87.80
2018-09-13T18:33:13.236Z,87.80
2018-09-13T18:35:42.355Z,87.40
2018-09-13T18:38:10.804Z,86.70
2018-09-13T18:40:39.235Z,86.80
2018-09-13T18:43:07.656Z,86.70
2018-09-13T18:45:36.112Z,87.80
2018-09-13T18:48:04.639Z,87.40
2018-09-13T18:50:33.051Z,87.30
2018-09-13T18:53:01.564Z,87.60
2018-09-13T18:55:29.980Z,87.50
2018-09-13T18:57:58.417Z,87.40
2018-09-13T19:00:26.844Z,87.30
2018-09-13T19:02:55.278Z,87.60
2018-09-13T19:05:23.687Z,88.10
2018-09-13T19:07:52.213Z,88.30
2018-09-13T19:10:20.715Z,88.30
2018-09-13T19:12:49.134Z,88.70
2018-09-13T19:15:17.613Z,88.70
2018-09-13T19:17:46.192Z,88.60
2018-09-13T19:20:14.654Z,88.70
2018-09-13T19:22:43.112Z,88.90
2018-09-13T19:25:11.575Z,88.90
2018-09-13T19:27:40.018Z,88.50
2018-09-13T19:30:08.554Z,88.90
2018-09-13T19:32:36.912Z,89.00
2018-09-13T19:35:05.349Z,88.70
2018-09-13T19:37:33.744Z,88.60
2018-09-13T19:40:02.220Z,88.90
2018-09-13T19:42:30.698Z,88.90
2018-09-13T19:44:59.188Z,89.00
2018-09-13T19:47:27.692Z,89.30
2018-09-13T19:49:56.165Z,89.20
2018-09-13T19:52:24.592Z,88.40
2018-09-13T19:54:53.134Z,88.60
2018-09-13T19:57:21.668Z,89.40
2018-09-13T19:59:50.200Z,89.30
2018-09-13T20:02:18.674Z,89.60
2018-09-13T20:04:47.240Z,89.30
2018-09-13T20:07:15.868Z,89.80
2018-09-13T20:09:44.319Z,89.80
2018-09-13T20:12:12.842Z,89.40
2018-09-13T20:14:41.284Z,88.60
2018-09-13T20:17:09.961Z,88.90
2018-09-13T20:19:38.373Z,89.20
2018-09-13T20:22:06.929Z,89.00
2018-09-13T20:24:35.426Z,88.90
2018-09-13T20:27:03.930Z,88.30
2018-09-13T20:29:32.362Z,87.70
2018-09-13T20:32:00.803Z,87.70
2018-09-13T20:34:29.668Z,87.40
2018-09-13T20:36:58.260Z,87.40
2018-09-13T20:39:26.772Z,87.30
2018-09-13T20:41:55.234Z,87.50
2018-09-13T20:44:24.257Z,87.70
2018-09-13T20:46:52.773Z,87.20
2018-09-13T20:49:21.252Z,87.40
2018-09-13T20:51:49.642Z,87.70
2018-09-13T20:54:18.411Z,87.80
2018-09-13T20:56:46.921Z,87.90
2018-09-13T20:59:15.360Z,87.80
2018-09-13T21:01:43.752Z,87.90
2018-09-13T21:04:12.166Z,88.60
2018-09-13T21:06:40.625Z,88.80
2018-09-13T21:09:10.781Z,87.90
2018-09-13T21:11:39.165Z,88.00
2018-09-13T21:14:07.649Z,88.10
2018-09-13T21:16:36.078Z,88.00
2018-09-13T21:19:04.957Z,87.70
2018-09-13T21:21:33.384Z,88.20
2018-09-13T21:24:01.818Z,88.00
2018-09-13T21:26:30.223Z,88.60
2018-09-13T21:28:58.646Z,88.50
2018-09-13T21:31:27.131Z,88.20
2018-09-13T21:33:55.589Z,88.00
2018-09-13T21:36:24.150Z,88.30
2018-09-13T21:38:52.673Z,88.30
2018-09-13T21:41:21.131Z,88.30
2018-09-13T21:43:49.562Z,88.20
2018-09-13T21:46:18.043Z,88.10
2018-09-13T21:48:46.427Z,88.30
2018-09-13T21:51:14.978Z,88.10
2018-09-13T21:53:43.447Z,88.00
2018-09-13T21:56:11.955Z,88.20
2018-09-13T21:58:40.404Z,88.40
2018-09-13T22:01:08.868Z,88.10
2018-09-13T22:03:37.277Z,88.20
2018-09-13T22:06:05.767Z,88.20
2018-09-13T22:08:34.185Z,88.20
2018-09-13T22:11:02.634Z,88.30
2018-09-13T22:13:31.220Z,88.00
2018-09-13T22:16:00.335Z,87.90
2018-09-13T22:18:28.803Z,88.50
2018-09-13T22:20:57.280Z,88.00
2018-09-13T22:23:25.768Z,87.80
2018-09-13T22:25:54.159Z,87.70
2018-09-13T22:28:22.531Z,87.70
2018-09-13T22:30:51.262Z,87.50
2018-09-13T22:33:19.672Z,87.50
2018-09-13T22:35:48.115Z,87.80
2018-09-13T22:38:16.528Z,87.80
2018-09-13T22:40:44.967Z,87.70
2018-09-13T22:43:13.411Z,88.30
2018-09-13T22:45:41.845Z,88.00
2018-09-13T22:48:10.196Z,88.00
2018-09-13T22:50:38.587Z,87.90
2018-09-13T22:53:06.964Z,88.20
2018-09-13T22:55:35.420Z,88.20
2018-09-13T22:58:03.934Z,88.50
2018-09-13T23:00:32.374Z,87.80
2018-09-13T23:03:00.754Z,88.20
2018-09-13T23:05:29.304Z,88.20
2018-09-13T23:07:57.622Z,88.20
2018-09-13T23:10:26.025Z,88.40
2018-09-13T23:12:54.418Z,88.20
2018-09-13T23:15:22.849Z,88.70
2018-09-13T23:17:51.316Z,88.20
2018-09-13T23:20:19.740Z,88.40
2018-09-13T23:22:48.287Z,88.40
2018-09-13T23:25:16.705Z,89.40
2018-09-13T23:27:45.146Z,88.70
2018-09-13T23:30:13.588Z,89.10
2018-09-13T23:32:42.070Z,88.70
2018-09-13T23:35:10.474Z,88.60
2018-09-13T23:37:38.977Z,88.90
2018-09-13T23:40:07.531Z,89.20
2018-09-13T23:42:35.876Z,89.30
2018-09-13T23:45:04.926Z,89.70
2018-09-13T23:47:33.374Z,89.70
2018-09-13T23:50:01.807Z,89.80
2018-09-13T23:52:30.202Z,90.00
2018-09-13T23:54:58.652Z,90.30
2018-09-13T23:57:27.138Z,90.30
2018-09-13T23:59:55.659Z,90.20
